Terminal Aerodrome Forecast
Issued by NWS

Home | Current Version | Previous Version | Text Only | Print | Product List | Glossary On
Versions: 1 2 3 4 5 6 7 8 9 10 11 12
000
FTUS45 KABQ 280534
TAFSAF
TAF
KSAF 280534Z 2806/2906 13007KT P6SM -RA SCT025 OVC080
     FM280800 01007KT P6SM -RA SCT025 OVC060
     FM281200 02010KT P6SM VCSH SCT025 OVC050
     FM281800 12008KT P6SM VCSH BKN060=

USA.gov is the U.S. government's official web portal to all federal, state and local government web resources and services.